Time;durP1;ratioP1;P1;durP2;ratioP2;P2;SDS_P1;SDS_P2;PMS_P1;PMS_P2;Temp;Humidity;BMP_temperature;BMP_pressure;BME280_temperature;BME280_humidity;BME280_pressure;Samples;Min_cycle;Max_cycle;Signal;HPM_P1;HPM_P2
2023/01/13 00:01:11;;;;;;;;;42.00;36.00;;;;;6.87;82.68;99829.66;5074301;28;45334;-77
2023/01/13 00:03:37;;;;;;;;;44.67;37.67;;;;;6.86;82.88;99827.97;5074880;28;45478;-76
2023/01/13 00:06:04;;;;;;;;;38.67;35.00;;;;;6.86;82.75;99827.09;5074342;27;45719;-77
2023/01/13 00:08:29;;;;;;;;;41.33;30.67;;;;;6.83;82.62;99821.88;5090035;27;45472;-77
2023/01/13 00:10:55;;;;;;;;;37.33;31.67;;;;;6.82;83.26;99828.88;5073192;27;45550;-77
2023/01/13 00:13:25;;;;;;;;;43.33;35.33;;;;;6.79;83.42;99826.28;5074653;27;45495;-77
2023/01/13 00:16:03;;;;;;;;;44.33;38.00;;;;;6.80;83.54;99824.53;5074096;27;46379;-77
2023/01/13 00:18:29;;;;;;;;;46.67;38.33;;;;;6.82;83.50;99813.16;5073485;28;45529;-77
2023/01/13 00:21:02;;;;;;;;;40.00;36.00;;;;;6.82;83.50;99817.53;5074045;28;45659;-77
2023/01/13 00:23:30;;;;;;;;;42.67;35.00;;;;;6.81;83.87;99814.03;5073872;28;45521;-77
2023/01/13 00:25:57;;;;;;;;;37.00;34.67;;;;;6.81;83.63;99816.66;5074055;27;46034;-77
2023/01/13 00:28:23;;;;;;;;;38.00;36.00;;;;;6.77;84.09;99794.00;5074317;27;45539;-77
2023/01/13 00:30:48;;;;;;;;;41.33;37.00;;;;;6.80;83.88;99800.97;5074720;27;45342;-77
2023/01/13 00:33:14;;;;;;;;;41.33;37.33;;;;;6.78;84.33;99818.44;5074504;28;45395;-77
2023/01/13 00:35:39;;;;;;;;;48.33;37.33;;;;;6.83;84.11;99819.25;5074724;27;45694;-77
2023/01/13 00:38:04;;;;;;;;;47.33;38.33;;;;;6.82;84.51;99814.91;5074428;28;45325;-77
2023/01/13 00:40:30;;;;;;;;;45.67;39.33;;;;;6.84;84.09;99821.88;5074072;27;45323;-77
2023/01/13 00:45:39;;;;;;;;;29.67;29.67;;;;;6.86;84.24;99814.84;5073862;28;45450;-77
2023/01/13 00:48:05;;;;;;;;;36.00;33.33;;;;;6.85;84.60;99797.41;5073899;27;45384;-77
2023/01/13 00:50:30;;;;;;;;;43.67;37.67;;;;;6.79;84.19;99787.00;5074229;27;45909;-77
2023/01/13 00:52:59;;;;;;;;;36.33;31.33;;;;;6.81;84.43;99790.47;5073949;27;45682;-77
2023/01/13 00:55:24;;;;;;;;;38.33;35.00;;;;;6.80;84.40;99785.22;5073810;27;45493;-77
2023/01/13 00:57:50;;;;;;;;;40.67;35.00;;;;;6.85;84.43;99791.28;5073295;27;45401;-77
2023/01/13 01:00:16;;;;;;;;;41.00;36.50;;;;;6.85;84.37;99791.28;5073863;28;46009;-76
2023/01/13 01:02:41;;;;;;;;;42.00;36.33;;;;;6.81;84.32;99782.59;5074008;27;45385;-77
2023/01/13 01:05:07;;;;;;;;;37.00;33.00;;;;;6.79;84.24;99783.50;5073741;28;45480;-77
2023/01/13 01:07:32;;;;;;;;;52.67;40.33;;;;;6.77;84.05;99782.66;5073363;27;45465;-77
2023/01/13 01:09:58;;;;;;;;;37.33;34.67;;;;;6.75;84.28;99781.81;5073425;27;45707;-77
2023/01/13 01:12:23;;;;;;;;;37.33;35.67;;;;;6.77;84.34;99780.03;5073981;27;45401;-77
2023/01/13 01:14:49;;;;;;;;;40.67;36.33;;;;;6.73;84.15;99773.09;5073657;27;45505;-77
2023/01/13 01:17:14;;;;;;;;;39.33;35.00;;;;;6.71;83.82;99790.59;5073614;28;45455;-77
2023/01/13 01:19:39;;;;;;;;;42.67;35.33;;;;;6.65;83.93;99802.03;5073338;28;45383;-77
2023/01/13 01:22:05;;;;;;;;;36.67;33.33;;;;;6.63;83.98;99807.28;5074282;27;45434;-77
2023/01/13 01:24:30;;;;;;;;;40.33;35.33;;;;;6.55;83.91;99785.56;5092700;27;45688;-77
2023/01/13 01:26:56;;;;;;;;;33.67;33.00;;;;;6.52;84.23;99771.66;5075751;28;45502;-77
2023/01/13 01:29:21;;;;;;;;;34.67;32.67;;;;;6.49;84.33;99776.94;5076963;27;45516;-77
2023/01/13 01:31:47;;;;;;;;;34.67;30.67;;;;;6.46;84.50;99784.81;5077332;27;45515;-77
2023/01/13 01:34:12;;;;;;;;;38.00;35.00;;;;;6.42;84.51;99773.50;5077064;27;45884;-77
2023/01/13 01:36:38;;;;;;;;;38.00;30.33;;;;;6.40;84.72;99762.19;5076888;28;45467;-77
2023/01/13 01:39:04;;;;;;;;;36.67;33.00;;;;;6.38;84.52;99765.72;5076860;28;45580;-77
2023/01/13 01:41:32;;;;;;;;;41.33;34.67;;;;;6.34;84.74;99753.56;5076733;27;45550;-77
2023/01/13 01:44:05;;;;;;;;;35.67;30.33;;;;;6.39;84.96;99763.06;5076827;27;45413;-77
2023/01/13 01:46:39;;;;;;;;;39.67;33.33;;;;;6.36;84.80;99760.53;5076723;27;45509;-77
2023/01/13 01:49:20;;;;;;;;;28.67;23.67;;;;;6.42;84.84;99764.78;5076735;27;45459;-77
2023/01/13 01:52:05;;;;;;;;;41.00;35.00;;;;;6.41;84.77;99760.44;5092077;27;45353;-77
2023/01/13 01:54:39;;;;;;;;;38.33;35.33;;;;;6.44;84.79;99761.28;5076162;27;45707;-77
2023/01/13 01:57:09;;;;;;;;;37.33;30.67;;;;;6.47;84.85;99773.47;5076401;27;45382;-77
2023/01/13 01:59:38;;;;;;;;;33.67;30.67;;;;;6.50;84.93;99773.44;5092782;27;45357;-77
2023/01/13 02:02:04;;;;;;;;;41.33;36.33;;;;;6.51;84.76;99756.81;5076781;27;45475;-77
2023/01/13 02:04:36;;;;;;;;;38.33;35.33;;;;;6.53;84.79;99744.59;5076415;27;46323;-77
2023/01/13 02:07:02;;;;;;;;;40.67;35.33;;;;;6.52;84.89;99743.72;5076481;27;45426;-77
2023/01/13 02:09:29;;;;;;;;;42.00;36.00;;;;;6.54;85.14;99751.53;5075967;28;45461;-77
2023/01/13 02:14:41;;;;;;;;;44.00;38.67;;;;;6.52;85.23;99730.63;5075998;28;45454;-77
2023/01/13 02:17:19;;;;;;;;;52.00;39.33;;;;;6.54;85.13;99730.56;5076010;28;45484;-77
2023/01/13 02:20:03;;;;;;;;;45.33;35.67;;;;;6.58;85.12;99727.03;5076652;27;45507;-77
2023/01/13 02:22:53;;;;;;;;;47.33;35.33;;;;;6.57;85.17;99713.06;5075897;28;45519;-76
2023/01/13 02:25:47;;;;;;;;;39.00;35.33;;;;;6.58;85.10;99696.47;5075380;27;45382;-77
2023/01/13 02:28:36;;;;;;;;;39.00;36.00;;;;;6.58;84.97;99698.22;5065699;28;45625;-77
2023/01/13 02:34:16;;;;;;;;;36.67;34.33;;;;;6.56;85.30;99679.03;5075306;28;45415;-77
2023/01/13 02:36:53;;;;;;;;;38.00;33.00;;;;;6.47;85.38;99668.69;5074516;28;47392;-76
2023/01/13 02:39:35;;;;;;;;;38.67;35.00;;;;;6.47;85.35;99685.28;5075742;27;45407;-77
2023/01/13 02:45:10;;;;;;;;;45.00;35.33;;;;;6.34;85.97;99715.16;5075572;28;45325;-76
2023/01/13 02:47:39;;;;;;;;;41.67;37.00;;;;;6.20;86.01;99717.09;5075432;27;45503;-77
2023/01/13 02:50:09;;;;;;;;;43.33;37.00;;;;;6.10;86.85;99725.94;5075207;27;45429;-77
2023/01/13 02:52:39;;;;;;;;;22.33;20.67;;;;;6.04;87.03;99700.69;5091466;27;45514;-77
2023/01/13 02:55:14;;;;;;;;;41.33;35.33;;;;;5.98;88.00;99698.16;5074589;28;45511;-77
2023/01/13 02:57:41;;;;;;;;;32.33;27.67;;;;;5.91;87.84;99686.03;5075381;28;46434;-77
2023/01/13 03:00:10;;;;;;;;;41.67;34.67;;;;;5.85;87.83;99699.16;5075352;27;45476;-77
2023/01/13 03:02:37;;;;;;;;;36.67;36.00;;;;;5.82;88.43;99699.19;5075797;27;45488;-77
2023/01/13 03:05:03;;;;;;;;;41.67;36.00;;;;;5.78;88.62;99711.44;5075099;28;45601;-77
2023/01/13 03:07:47;;;;;;;;;44.00;34.00;;;;;5.80;88.46;99717.53;5074659;28;45591;-77
2023/01/13 03:10:46;;;;;;;;;42.33;34.67;;;;;5.83;88.39;99711.41;5074701;28;45557;-77
2023/01/13 03:13:30;;;;;;;;;37.33;35.00;;;;;5.85;88.42;99715.75;5090662;27;45528;-76
2023/01/13 03:16:10;;;;;;;;;39.00;34.00;;;;;5.86;88.11;99711.38;5074857;27;45407;-76
2023/01/13 03:18:45;;;;;;;;;33.00;32.67;;;;;5.89;88.13;99724.44;5074931;28;46447;-77
2023/01/13 03:21:39;;;;;;;;;31.33;28.33;;;;;5.91;88.05;99728.75;5074945;28;45490;-77
2023/01/13 03:24:16;;;;;;;;;38.33;34.67;;;;;5.97;88.00;99730.44;5074112;28;45767;-77
2023/01/13 03:26:51;;;;;;;;;34.67;32.67;;;;;5.94;87.76;99715.66;5073655;28;45500;-77
2023/01/13 03:29:44;;;;;;;;;25.67;22.00;;;;;5.95;87.33;99716.50;5073844;28;47312;-77
2023/01/13 03:32:22;;;;;;;;;33.33;31.67;;;;;5.95;87.42;99730.47;5075120;27;45638;-77
2023/01/13 03:34:57;;;;;;;;;38.33;33.33;;;;;5.99;87.08;99738.28;5084113;27;45416;-77
2023/01/13 03:37:28;;;;;;;;;34.33;31.33;;;;;5.97;87.41;99740.06;5075315;27;45489;-77
2023/01/13 03:39:59;;;;;;;;;35.00;33.00;;;;;5.97;87.19;99740.91;5075115;27;48132;-77
2023/01/13 03:42:29;;;;;;;;;33.67;30.33;;;;;6.04;86.87;99731.22;5074983;28;45332;-77
2023/01/13 03:45:14;;;;;;;;;38.67;28.33;;;;;6.00;87.07;99742.63;5073997;27;45513;-77
2023/01/13 03:47:43;;;;;;;;;31.33;26.00;;;;;6.06;86.89;99747.78;5074457;27;45455;-77
2023/01/13 03:50:14;;;;;;;;;32.33;27.67;;;;;6.09;86.86;99751.22;5089631;27;46935;-77
2023/01/13 03:52:48;;;;;;;;;29.67;28.67;;;;;6.10;86.94;99749.50;5089268;27;45486;-77
2023/01/13 03:55:19;;;;;;;;;26.00;24.33;;;;;6.12;86.53;99756.44;5074609;27;45521;-77
2023/01/13 03:58:13;;;;;;;;;24.67;22.00;;;;;6.13;86.45;99755.56;5074597;28;45380;-77
2023/01/13 04:01:07;;;;;;;;;38.00;30.33;;;;;6.17;86.40;99738.06;5074342;28;45926;-77
2023/01/13 04:03:47;;;;;;;;;35.00;32.67;;;;;6.15;85.96;99739.84;5073821;28;45354;-77
2023/01/13 04:06:37;;;;;;;;;31.67;30.67;;;;;6.14;85.47;99738.09;5074375;28;45573;-77
2023/01/13 04:09:31;;;;;;;;;36.00;29.00;;;;;6.12;85.90;99735.50;5089736;27;45480;-77
2023/01/13 04:12:07;;;;;;;;;31.00;28.00;;;;;6.06;85.61;99745.16;5074236;28;45684;-77
2023/01/13 04:14:34;;;;;;;;;32.00;30.00;;;;;6.08;85.63;99751.25;5073718;28;45329;-77
2023/01/13 04:17:00;;;;;;;;;32.33;31.33;;;;;6.04;85.94;99737.31;5074161;28;45452;-77
2023/01/13 04:19:25;;;;;;;;;33.00;30.00;;;;;6.04;85.88;99720.75;5074508;27;45418;-77
2023/01/13 04:21:50;;;;;;;;;36.33;33.00;;;;;6.06;86.06;99708.53;5074243;27;46249;-77
2023/01/13 04:24:16;;;;;;;;;30.00;29.67;;;;;6.06;86.00;99711.13;5072591;27;45685;-77
2023/01/13 04:26:41;;;;;;;;;38.33;34.67;;;;;6.05;85.94;99712.03;5074075;27;45921;-78
2023/01/13 04:29:07;;;;;;;;;38.00;34.33;;;;;6.10;85.62;99729.41;5074323;27;45529;-78
2023/01/13 04:31:32;;;;;;;;;26.67;26.00;;;;;6.08;85.93;99725.06;5074420;27;46520;-78
2023/01/13 04:33:57;;;;;;;;;31.67;28.33;;;;;6.11;85.97;99727.66;5073582;27;45596;-77
2023/01/13 04:36:26;;;;;;;;;32.67;26.67;;;;;6.17;85.91;99732.84;5074711;27;45443;-77
2023/01/13 04:38:52;;;;;;;;;34.33;32.00;;;;;6.19;85.59;99729.31;5074106;27;45568;-78
2023/01/13 04:41:18;;;;;;;;;32.00;31.00;;;;;6.21;85.81;99724.03;5073934;28;46490;-77
2023/01/13 04:43:43;;;;;;;;;26.33;25.67;;;;;6.22;85.70;99717.91;5074005;27;45409;-77
2023/01/13 04:46:09;;;;;;;;;30.00;29.00;;;;;6.21;85.75;99722.28;5090307;27;45589;-77
2023/01/13 04:48:34;;;;;;;;;32.67;29.33;;;;;6.29;85.90;99737.91;5074451;27;45502;-78
2023/01/13 04:51:00;;;;;;;;;27.67;25.33;;;;;6.32;85.58;99755.34;5074036;28;45383;-78
2023/01/13 04:53:25;;;;;;;;;31.33;29.00;;;;;6.35;85.49;99765.78;5072691;28;45435;-78
2023/01/13 04:55:51;;;;;;;;;34.67;31.00;;;;;6.30;85.79;99771.94;5074254;27;45873;-77
2023/01/13 04:58:16;;;;;;;;;20.00;20.00;;;;;6.23;86.20;99767.63;5077178;28;45593;-78
2023/01/13 05:00:42;;;;;;;;;41.00;35.33;;;;;6.12;86.71;99766.91;5077433;27;46513;-78
2023/01/13 05:03:08;;;;;;;;;31.33;27.33;;;;;6.04;87.30;99762.63;5076636;27;45562;-78
2023/01/13 05:05:33;;;;;;;;;36.00;32.33;;;;;5.95;87.92;99759.25;5077453;27;45463;-77
2023/01/13 05:07:59;;;;;;;;;37.67;34.67;;;;;5.89;88.60;99756.69;5076820;27;45448;-78
2023/01/13 05:10:25;;;;;;;;;32.00;31.33;;;;;5.89;89.20;99751.47;5077384;27;45460;-78
2023/01/13 05:18:19;;;;;;;;;28.00;20.67;;;;;6.02;90.13;99749.59;5077499;28;45546;-78
2023/01/13 05:20:45;;;;;;;;;40.67;34.33;;;;;6.04;90.25;99746.94;5075782;28;45428;-77
2023/01/13 05:25:55;;;;;;;;;37.33;30.33;;;;;6.05;90.32;99749.53;5064293;28;45447;-77
2023/01/13 05:28:20;;;;;;;;;38.00;33.67;;;;;6.08;90.85;99764.34;5077271;27;45446;-78
2023/01/13 05:30:48;;;;;;;;;38.00;32.67;;;;;6.13;90.45;99775.63;5077068;27;45451;-77
2023/01/13 05:33:16;;;;;;;;;40.33;34.67;;;;;6.16;90.55;99779.09;5077166;27;45317;-78
2023/01/13 05:35:43;;;;;;;;;38.00;31.00;;;;;6.21;90.88;99779.00;5077052;27;45466;-78
2023/01/13 05:38:08;;;;;;;;;32.33;31.00;;;;;6.23;90.69;99783.34;5076654;28;45484;-78
2023/01/13 05:43:23;;;;;;;;;31.00;26.00;;;;;6.29;90.43;99787.66;5077555;28;45455;-78
2023/01/13 05:46:01;;;;;;;;;30.67;24.00;;;;;6.36;90.57;99805.03;5077343;27;45445;-78
2023/01/13 05:48:34;;;;;;;;;40.67;35.33;;;;;6.37;90.58;99804.13;5092168;27;45530;-77
2023/01/13 05:51:02;;;;;;;;;34.00;29.00;;;;;6.40;90.54;99814.56;5076467;27;45413;-77
2023/01/13 05:53:28;;;;;;;;;31.33;27.00;;;;;6.45;90.42;99819.75;5062668;28;45498;-78
2023/01/13 05:55:53;;;;;;;;;36.67;33.33;;;;;6.46;90.52;99811.88;5076169;28;45502;-78
2023/01/13 05:58:21;;;;;;;;;35.67;35.33;;;;;6.48;90.12;99815.34;5076581;27;45521;-78
2023/01/13 06:00:46;;;;;;;;;34.67;34.33;;;;;6.52;90.25;99824.91;5076554;27;45674;-78
2023/01/13 06:03:13;;;;;;;;;35.00;31.67;;;;;6.54;90.32;99819.63;5093057;27;45447;-78
2023/01/13 06:05:38;;;;;;;;;35.00;34.00;;;;;6.60;90.19;99824.81;5078293;27;45439;-78
2023/01/13 06:08:06;;;;;;;;;31.33;28.33;;;;;6.62;90.08;99821.28;5076963;27;45508;-78
2023/01/13 06:10:33;;;;;;;;;26.67;23.33;;;;;6.66;89.82;99827.34;5076327;27;46369;-78
2023/01/13 06:12:59;;;;;;;;;37.33;28.00;;;;;6.67;89.84;99833.47;5076200;28;45390;-78
2023/01/13 06:15:24;;;;;;;;;27.67;26.00;;;;;6.71;89.96;99828.13;5091581;27;45395;-78
2023/01/13 06:17:50;;;;;;;;;32.67;28.33;;;;;6.71;89.80;99829.88;5076313;28;45405;-78
2023/01/13 06:20:16;;;;;;;;;30.33;28.00;;;;;6.70;89.52;99831.69;5075566;27;46222;-78
2023/01/13 06:22:46;;;;;;;;;26.67;24.00;;;;;6.74;89.64;99830.72;5075780;28;45524;-78
2023/01/13 06:25:18;;;;;;;;;30.67;29.00;;;;;6.76;89.49;99835.94;5075949;27;45602;-78
2023/01/13 06:27:44;;;;;;;;;30.33;24.00;;;;;6.76;89.58;99831.56;5075791;27;45359;-78
2023/01/13 06:30:10;;;;;;;;;29.00;24.00;;;;;6.77;89.31;99838.53;5075786;27;45376;-78
2023/01/13 06:32:43;;;;;;;;;29.33;28.00;;;;;6.75;89.38;99837.69;5075250;28;46014;-78
2023/01/13 06:35:12;;;;;;;;;31.00;25.33;;;;;6.78;89.65;99844.66;5075774;27;45529;-78
2023/01/13 06:37:39;;;;;;;;;29.67;27.00;;;;;6.77;89.80;99838.53;5075406;28;45551;-78
2023/01/13 06:40:06;;;;;;;;;31.00;29.00;;;;;6.81;89.80;99835.00;5090806;27;46360;-78
2023/01/13 06:45:22;;;;;;;;;33.00;28.67;;;;;6.82;90.42;99834.13;5075091;28;45471;-78
2023/01/13 06:47:48;;;;;;;;;38.33;33.00;;;;;6.85;90.26;99838.47;5075222;28;45504;-79
2023/01/13 06:50:15;;;;;;;;;31.00;30.67;;;;;6.87;89.95;99857.66;5075319;27;45526;-78
2023/01/13 06:52:40;;;;;;;;;27.00;26.00;;;;;6.86;89.88;99848.94;5090422;27;45494;-77
2023/01/13 06:55:06;;;;;;;;;33.00;31.33;;;;;6.89;90.42;99848.00;5074954;27;45443;-78
2023/01/13 06:57:31;;;;;;;;;38.33;34.00;;;;;6.90;90.01;99847.09;5075712;27;45333;-78
2023/01/13 06:59:57;;;;;;;;;38.00;35.00;;;;;6.92;90.19;99851.44;5075352;27;46290;-78
2023/01/13 07:02:22;;;;;;;;;39.00;32.67;;;;;6.93;90.10;99847.06;5075166;28;45436;-78
2023/01/13 07:04:48;;;;;;;;;30.00;25.33;;;;;6.94;90.28;99846.19;5075889;28;45363;-77
2023/01/13 07:07:13;;;;;;;;;31.33;30.67;;;;;6.97;89.81;99854.00;5074543;27;45294;-78
2023/01/13 07:09:39;;;;;;;;;36.33;30.33;;;;;6.99;90.04;99858.34;5074585;27;45501;-78
2023/01/13 07:12:05;;;;;;;;;28.67;25.67;;;;;6.99;89.79;99857.47;5074662;27;45814;-78
2023/01/13 07:17:14;;;;;;;;;27.67;23.00;;;;;6.99;89.33;99862.72;5075105;28;45389;-78
2023/01/13 07:19:39;;;;;;;;;24.00;22.33;;;;;6.94;89.26;99852.28;5075061;27;45815;-77
2023/01/13 07:22:05;;;;;;;;;23.67;22.67;;;;;6.97;89.44;99861.88;5074894;28;45406;-77
2023/01/13 07:24:30;;;;;;;;;23.67;23.00;;;;;6.98;89.46;99866.22;5090318;27;45457;-76
2023/01/13 07:26:56;;;;;;;;;34.00;29.33;;;;;7.00;88.98;99867.06;5075255;28;45348;-79
2023/01/13 07:29:21;;;;;;;;;27.67;27.67;;;;;6.98;89.49;99861.84;5074760;27;46160;-79
2023/01/13 07:31:47;;;;;;;;;26.00;24.67;;;;;7.00;89.38;99865.31;5075065;28;45478;-79
2023/01/13 07:34:12;;;;;;;;;26.00;24.67;;;;;7.01;89.62;99874.06;5075013;27;45384;-79
2023/01/13 07:36:38;;;;;;;;;28.00;26.00;;;;;7.08;90.11;99882.69;5074896;28;45410;-77
2023/01/13 07:39:04;;;;;;;;;25.33;24.67;;;;;7.10;89.60;99878.28;5074770;27;45992;-79
2023/01/13 07:44:14;;;;;;;;;24.67;23.33;;;;;7.13;90.08;99878.25;5073942;28;45468;-77
2023/01/13 07:46:40;;;;;;;;;30.67;16.33;;;;;7.10;89.85;99878.28;5073788;27;45565;-77
2023/01/13 07:49:05;;;;;;;;;24.33;24.33;;;;;7.14;89.67;99880.84;5074135;27;45493;-78
2023/01/13 07:51:34;;;;;;;;;28.33;28.33;;;;;7.17;89.66;99890.44;5073980;28;45445;-78
2023/01/13 07:54:00;;;;;;;;;28.33;25.00;;;;;7.18;89.67;99889.56;5073290;28;45418;-78
2023/01/13 07:56:25;;;;;;;;;27.33;26.00;;;;;7.22;89.77;99901.72;5074334;27;45248;-78
2023/01/13 07:58:51;;;;;;;;;27.33;25.67;;;;;7.19;89.70;99893.91;5074378;27;45380;-78
2023/01/13 08:01:17;;;;;;;;;29.67;26.33;;;;;7.22;89.87;99905.19;5074095;27;45482;-78
2023/01/13 08:03:43;;;;;;;;;34.00;31.67;;;;;7.19;89.76;99897.41;5073474;28;45459;-78
2023/01/13 08:06:09;;;;;;;;;30.67;28.00;;;;;7.17;90.04;99896.56;5073615;28;45448;-78
2023/01/13 08:08:35;;;;;;;;;37.00;32.00;;;;;7.18;90.30;99895.66;5062207;28;45451;-78
2023/01/13 08:11:03;;;;;;;;;44.67;37.33;;;;;7.22;90.52;99905.19;5071943;28;45651;-78
2023/01/13 08:13:29;;;;;;;;;42.33;37.33;;;;;7.19;90.49;99900.03;5073823;27;45404;-77
2023/01/13 08:16:03;;;;;;;;;45.67;35.00;;;;;7.22;90.50;99909.56;5073497;27;45451;-78
2023/01/13 08:18:30;;;;;;;;;47.33;37.67;;;;;7.19;90.97;99904.41;5072342;28;46486;-77
2023/01/13 08:21:01;;;;;;;;;44.33;35.33;;;;;7.21;91.13;99915.72;5067637;27;45380;-77
2023/01/13 08:23:26;;;;;;;;;38.33;28.67;;;;;7.21;91.29;99918.34;5052315;28;45336;-77
2023/01/13 08:25:52;;;;;;;;;39.67;35.67;;;;;7.22;91.22;99920.94;5053486;28;45558;-78
2023/01/13 08:28:17;;;;;;;;;39.67;35.00;;;;;7.23;90.92;99927.03;5052263;28;46443;-78
2023/01/13 08:30:43;;;;;;;;;34.00;27.33;;;;;7.19;90.41;99925.38;5065924;28;45385;-78
2023/01/13 08:33:10;;;;;;;;;40.67;35.33;;;;;7.17;90.61;99932.41;5066248;28;45468;-78
2023/01/13 08:35:37;;;;;;;;;36.00;30.67;;;;;7.19;91.07;99935.88;5053401;27;45530;-78
2023/01/13 08:38:03;;;;;;;;;45.67;37.67;;;;;7.17;90.96;99940.25;5066688;28;45639;-77
2023/01/13 08:40:28;;;;;;;;;42.00;37.33;;;;;7.19;90.95;99943.72;5072734;27;45518;-77
2023/01/13 08:42:55;;;;;;;;;49.00;39.67;;;;;7.20;90.91;99943.72;5060237;27;45492;-78
2023/01/13 08:45:21;;;;;;;;;55.67;43.67;;;;;7.20;90.88;99943.72;5073383;28;45523;-78
2023/01/13 08:47:47;;;;;;;;;46.00;39.00;;;;;7.21;90.98;99949.78;5071928;28;48129;-78
2023/01/13 08:50:12;;;;;;;;;37.00;33.33;;;;;7.22;90.88;99965.50;5073752;27;45399;-78
2023/01/13 08:52:38;;;;;;;;;44.67;37.00;;;;;7.19;90.71;99952.47;5060167;28;45544;-77
2023/01/13 08:55:04;;;;;;;;;36.00;30.00;;;;;7.21;90.72;99966.41;5071656;28;45518;-78
2023/01/13 08:57:29;;;;;;;;;39.00;35.00;;;;;7.23;90.50;99976.88;5060429;27;47673;-77
2023/01/13 08:59:55;;;;;;;;;46.00;38.33;;;;;7.18;90.85;99974.34;5066937;28;45413;-77
2023/01/13 09:02:23;;;;;;;;;45.67;36.67;;;;;7.22;90.91;99986.50;5052914;28;45642;-78
2023/01/13 09:04:49;;;;;;;;;39.67;35.67;;;;;7.20;90.81;99996.16;5065965;28;45348;-77
2023/01/13 09:07:15;;;;;;;;;49.33;40.33;;;;;7.18;90.75;100008.44;5066604;28;45420;-77
2023/01/13 09:09:41;;;;;;;;;45.00;37.67;;;;;7.16;91.28;100001.47;5071631;28;45894;-78
2023/01/13 09:14:54;;;;;;;;;44.00;38.50;;;;;7.20;91.01;99996.16;5066032;28;44761;-77
2023/01/13 09:17:19;;;;;;;;;46.33;39.00;;;;;7.25;91.37;99998.72;5059399;28;45606;-78
2023/01/13 09:19:45;;;;;;;;;48.67;39.00;;;;;7.26;91.16;99998.69;5054681;28;45448;-78
2023/01/13 09:22:15;;;;;;;;;51.00;39.67;;;;;7.28;91.36;100009.16;5056379;28;46018;-78
2023/01/13 09:24:41;;;;;;;;;42.33;37.33;;;;;7.30;90.93;100023.13;5052105;28;45531;-78
2023/01/13 09:27:09;;;;;;;;;49.67;39.33;;;;;7.31;91.12;100011.75;5053021;28;46450;-78
2023/01/13 09:29:34;;;;;;;;;49.67;39.00;;;;;7.35;91.65;99995.09;5063416;28;45312;-78
2023/01/13 09:32:01;;;;;;;;;40.00;35.67;;;;;7.42;91.29;100011.59;5068659;27;45309;-78
2023/01/13 09:37:10;;;;;;;;;42.67;37.00;;;;;7.48;91.25;100028.16;5065545;28;45675;-77
2023/01/13 09:39:36;;;;;;;;;41.67;37.00;;;;;7.51;90.89;100028.13;5065832;28;45527;-78
2023/01/13 09:45:31;;;;;;;;;45.67;38.67;;;;;7.59;90.76;100025.38;5076063;28;45356;-78
2023/01/13 09:48:11;;;;;;;;;46.67;40.33;;;;;7.64;90.91;100026.19;5059594;28;45501;-78
2023/01/13 09:50:37;;;;;;;;;53.00;44.00;;;;;7.69;90.71;100017.38;5066382;28;45468;-77
2023/01/13 09:53:09;;;;;;;;;38.67;34.33;;;;;7.72;90.91;100021.69;5071690;27;45455;-78
2023/01/13 09:55:35;;;;;;;;;57.33;45.67;;;;;7.78;90.79;100021.59;5065751;27;45396;-78
2023/01/13 09:58:10;;;;;;;;;56.67;46.00;;;;;7.86;90.43;100024.13;5061198;28;45585;-78
2023/01/13 10:00:45;;;;;;;;;57.00;44.50;;;;;7.90;90.33;100021.41;5075257;27;45473;-78
2023/01/13 10:03:18;;;;;;;;;52.33;39.67;;;;;7.94;90.04;100012.59;5069538;27;45377;-78
2023/01/13 10:05:55;;;;;;;;;46.67;39.00;;;;;7.95;90.00;100009.09;5055475;28;45348;-78
2023/01/13 10:08:28;;;;;;;;;49.00;42.00;;;;;8.00;90.06;100020.41;5074872;27;45420;-77
2023/01/13 10:10:59;;;;;;;;;48.67;37.00;;;;;8.03;89.88;100023.00;5075202;27;45381;-78
2023/01/13 10:13:29;;;;;;;;;43.00;37.33;;;;;8.09;89.95;100014.13;5074926;27;45549;-78
2023/01/13 10:16:11;;;;;;;;;48.67;39.33;;;;;8.17;89.51;100012.25;5075701;28;45456;-77
2023/01/13 10:19:01;;;;;;;;;45.67;37.33;;;;;8.27;89.40;100013.84;5075432;27;45525;-77
2023/01/13 10:21:38;;;;;;;;;43.33;36.00;;;;;8.31;89.26;99991.88;5090721;27;45329;-77
2023/01/13 10:24:03;;;;;;;;;47.00;39.33;;;;;8.40;89.25;99996.13;5074720;27;45482;-77
2023/01/13 10:26:47;;;;;;;;;47.33;39.67;;;;;8.45;88.84;99998.69;5090859;27;45480;-77
2023/01/13 10:29:25;;;;;;;;;51.33;39.67;;;;;8.47;88.69;100008.28;5078794;27;47427;-76
2023/01/13 10:31:53;;;;;;;;;49.33;39.67;;;;;8.53;88.69;100009.94;5075241;28;45637;-76
2023/01/13 10:34:20;;;;;;;;;49.67;41.00;;;;;8.58;88.14;100000.19;5076438;27;45376;-78
2023/01/13 10:37:10;;;;;;;;;45.33;38.00;;;;;8.61;88.07;99984.38;5076693;27;45337;-77
2023/01/13 10:39:44;;;;;;;;;50.67;41.00;;;;;8.64;88.39;99986.94;5092744;27;45826;-78
2023/01/13 10:42:14;;;;;;;;;41.33;35.67;;;;;8.66;87.79;99983.41;5076241;27;45517;-78
2023/01/13 10:44:55;;;;;;;;;55.00;44.00;;;;;8.64;87.66;99972.06;5090990;27;45465;-78
2023/01/13 10:47:30;;;;;;;;;47.67;40.00;;;;;8.67;87.78;99979.03;5073767;28;45455;-78
2023/01/13 10:50:07;;;;;;;;;52.33;40.00;;;;;8.71;88.06;99980.69;5076455;28;45542;-76
2023/01/13 10:52:37;;;;;;;;;49.00;37.00;;;;;8.76;87.98;99968.31;5076880;27;45598;-76
2023/01/13 10:55:22;;;;;;;;;47.67;38.00;;;;;8.84;87.47;99965.56;5075412;27;45412;-77
2023/01/13 10:57:48;;;;;;;;;40.00;35.67;;;;;8.87;87.20;99961.09;5073801;28;45956;-78
2023/01/13 11:00:29;;;;;;;;;42.67;36.67;;;;;9.00;87.84;99954.69;5074857;28;45457;-76
2023/01/13 11:03:16;;;;;;;;;47.67;39.33;;;;;9.14;87.00;99951.78;5074479;27;45450;-78
2023/01/13 11:05:50;;;;;;;;;42.00;34.33;;;;;9.24;86.80;99928.75;5074398;28;45360;-78
2023/01/13 11:08:18;;;;;;;;;53.00;43.00;;;;;9.33;86.30;99931.19;5074528;27;45478;-77
2023/01/13 11:10:47;;;;;;;;;33.67;31.67;;;;;9.41;86.11;99916.09;5074314;27;46479;-78
2023/01/13 11:13:17;;;;;;;;;34.33;27.00;;;;;9.43;85.27;99914.28;5074844;27;45406;-78
2023/01/13 11:15:54;;;;;;;;;43.00;35.67;;;;;9.47;85.68;99915.97;5074345;27;45432;-78
2023/01/13 11:18:50;;;;;;;;;42.33;34.67;;;;;9.50;85.67;99917.66;5089368;27;45439;-78
2023/01/13 11:21:26;;;;;;;;;42.67;38.33;;;;;9.51;85.25;99909.75;5073841;27;45494;-79
2023/01/13 11:24:11;;;;;;;;;48.67;36.67;;;;;9.48;85.16;99899.28;5073235;27;45454;-78
2023/01/13 11:27:07;;;;;;;;;39.67;35.67;;;;;9.48;85.20;99885.25;5074081;28;45420;-78
2023/01/13 11:29:32;;;;;;;;;40.00;34.33;;;;;9.52;85.13;99905.34;5072321;27;45552;-78
2023/01/13 11:32:13;;;;;;;;;54.00;41.67;;;;;9.54;85.46;99901.78;5089359;27;48278;-78
2023/01/13 11:34:40;;;;;;;;;49.33;36.67;;;;;9.62;85.30;99902.44;5073435;27;45590;-78
2023/01/13 11:37:18;;;;;;;;;46.33;38.00;;;;;9.70;85.10;99902.28;5073398;27;45538;-78
2023/01/13 11:40:04;;;;;;;;;46.00;38.33;;;;;9.82;84.55;99894.06;5073686;27;45432;-78
2023/01/13 11:42:43;;;;;;;;;33.00;31.33;;;;;9.94;84.22;99874.44;5089207;27;46246;-79
2023/01/13 11:45:22;;;;;;;;;42.33;34.67;;;;;10.03;83.84;99867.19;5089626;27;45564;-79
2023/01/13 11:47:51;;;;;;;;;31.67;28.33;;;;;10.19;83.27;99874.72;5074385;27;45518;-80
2023/01/13 11:50:27;;;;;;;;;33.67;31.00;;;;;10.22;83.06;99870.22;5074187;27;45334;-77
2023/01/13 11:53:02;;;;;;;;;33.67;31.00;;;;;10.36;81.98;99877.78;5072871;28;48099;-79
2023/01/13 11:55:33;;;;;;;;;31.33;28.00;;;;;10.43;81.73;99852.97;5074222;27;45364;-79
2023/01/13 11:58:17;;;;;;;;;34.67;29.00;;;;;10.52;81.97;99847.44;5074194;27;45385;-78
2023/01/13 12:01:26;;;;;;;;;39.00;33.33;;;;;10.64;81.42;99848.88;5073835;27;45473;-77
2023/01/13 12:04:19;;;;;;;;;32.67;30.33;;;;;10.74;80.93;99852.94;5074035;27;45395;-78
2023/01/13 12:06:46;;;;;;;;;36.00;32.00;;;;;10.80;80.52;99858.06;5061925;28;45540;-79
2023/01/13 12:09:29;;;;;;;;;40.33;32.33;;;;;10.84;80.78;99865.84;5072498;27;45476;-79
2023/01/13 12:12:26;;;;;;;;;41.00;32.67;;;;;10.86;80.45;99854.38;5073601;27;45393;-79
2023/01/13 12:15:24;;;;;;;;;49.33;39.33;;;;;10.82;80.45;99837.78;5089282;27;45397;-79
2023/01/13 12:18:10;;;;;;;;;47.67;38.67;;;;;10.77;80.02;99834.41;5066281;27;45418;-79
2023/01/13 12:20:58;;;;;;;;;53.00;43.00;;;;;10.75;80.46;99838.84;5074207;28;45448;-78